Time;durP1;ratioP1;P1;durP2;ratioP2;P2;SDS_P1;SDS_P2;PMS_P1;PMS_P2;Temp;Humidity;BMP_temperature;BMP_pressure;BME280_temperature;BME280_humidity;BME280_pressure;Samples;Min_cycle;Max_cycle;Signal;HPM_P1;HPM_P2
2023/01/13 00:01:18;;;;;;;0.60;0.50;;;9.50;99.90;;;;;;4933943;29;20047;-75
2023/01/13 00:03:44;;;;;;;1.45;0.50;;;9.50;99.90;;;;;;4937280;29;20344;-74
2023/01/13 00:06:20;;;;;;;1.50;0.40;;;9.50;99.90;;;;;;4946313;28;20062;-76
2023/01/13 00:08:50;;;;;;;0.57;0.40;;;9.50;99.90;;;;;;4931286;29;20143;-75
2023/01/13 00:11:16;;;;;;;1.42;0.75;;;9.50;99.90;;;;;;4952146;28;20043;-75
2023/01/13 00:13:42;;;;;;;2.20;0.57;;;9.50;99.90;;;;;;4912323;29;20063;-75
2023/01/13 00:16:10;;;;;;;2.50;0.60;;;9.50;99.90;;;;;;4951386;28;20048;-75
2023/01/13 00:18:36;;;;;;;2.17;0.60;;;9.50;99.90;;;;;;4936972;29;20126;-76
2023/01/13 00:21:06;;;;;;;0.77;0.50;;;9.60;99.90;;;;;;4898227;29;20532;-75
2023/01/13 00:23:33;;;;;;;1.48;0.70;;;9.50;99.90;;;;;;4919627;29;20052;-75
2023/01/13 00:26:01;;;;;;;1.42;0.68;;;9.50;99.90;;;;;;4921029;29;20043;-76
2023/01/13 00:28:27;;;;;;;1.58;0.60;;;9.50;99.90;;;;;;4936605;29;20765;-76
2023/01/13 00:30:55;;;;;;;0.75;0.40;;;9.60;99.90;;;;;;4953070;28;20146;-77
2023/01/13 00:33:20;;;;;;;0.38;0.35;;;9.50;99.90;;;;;;4952807;28;20055;-75
2023/01/13 00:35:57;;;;;;;0.68;0.40;;;9.50;99.90;;;;;;4953336;29;20516;-76
2023/01/13 00:38:23;;;;;;;1.17;0.57;;;9.50;99.90;;;;;;4949185;29;20047;-76
2023/01/13 00:41:02;;;;;;;0.70;0.50;;;9.60;99.90;;;;;;4936021;29;20067;-75
2023/01/13 00:43:29;;;;;;;2.40;0.65;;;9.50;99.90;;;;;;4949335;28;20043;-75
2023/01/13 00:45:55;;;;;;;1.95;0.85;;;9.50;99.90;;;;;;4920448;29;20047;-76
2023/01/13 00:48:25;;;;;;;3.47;0.90;;;9.40;99.90;;;;;;4948948;29;20054;-76
2023/01/13 00:50:59;;;;;;;1.83;0.70;;;9.40;99.90;;;;;;4949707;29;20047;-76
2023/01/13 00:53:27;;;;;;;0.70;0.57;;;9.60;99.90;;;;;;4935942;29;20130;-75
2023/01/13 00:56:29;;;;;;;1.65;0.63;;;9.50;99.90;;;;;;4952719;29;20051;-75
2023/01/13 00:58:57;;;;;;;2.72;0.60;;;9.50;99.90;;;;;;4909387;29;20044;-75
2023/01/13 01:01:26;;;;;;;1.80;0.63;;;9.60;99.90;;;;;;4936465;29;20152;-74
2023/01/13 01:03:53;;;;;;;1.48;0.68;;;9.60;99.90;;;;;;4904781;29;20047;-75
2023/01/13 01:06:22;;;;;;;2.90;0.90;;;9.50;99.90;;;;;;4951206;28;20051;-74
2023/01/13 01:08:49;;;;;;;2.65;0.80;;;9.60;99.90;;;;;;4951606;28;20134;-75
2023/01/13 01:11:22;;;;;;;2.22;1.08;;;9.60;99.90;;;;;;4952259;29;20048;-74
2023/01/13 01:13:51;;;;;;;1.60;1.08;;;9.60;99.90;;;;;;4951322;28;20094;-74
2023/01/13 01:16:19;;;;;;;2.05;1.30;;;9.60;99.90;;;;;;4936386;29;20040;-75
2023/01/13 01:18:47;;;;;;;4.38;1.48;;;9.70;99.90;;;;;;4951720;29;20055;-75
2023/01/13 01:21:14;;;;;;;3.17;1.73;;;9.70;99.90;;;;;;4901823;29;20488;-75
2023/01/13 01:23:41;;;;;;;5.10;1.88;;;9.70;99.90;;;;;;4938671;29;20050;-75
2023/01/13 01:26:14;;;;;;;5.15;1.88;;;9.70;99.90;;;;;;4935984;29;20048;-75
2023/01/13 01:28:41;;;;;;;5.90;1.85;;;9.70;99.90;;;;;;4935103;29;20480;-75
2023/01/13 01:31:13;;;;;;;6.47;2.10;;;9.70;99.90;;;;;;4951891;29;20127;-74
2023/01/13 01:33:40;;;;;;;3.45;2.08;;;9.70;99.90;;;;;;4931434;29;20516;-74
2023/01/13 01:36:08;;;;;;;4.38;2.30;;;9.70;99.90;;;;;;4956756;28;20066;-74
2023/01/13 01:38:35;;;;;;;6.80;2.17;;;9.70;99.90;;;;;;4951807;28;20047;-74
2023/01/13 01:41:02;;;;;;;4.40;2.25;;;9.70;99.90;;;;;;4936740;29;20047;-74
2023/01/13 01:44:02;;;;;;;4.18;1.83;;;9.70;99.90;;;;;;4931195;29;20043;-75
2023/01/13 01:46:41;;;;;;;4.78;1.73;;;9.70;99.90;;;;;;4933222;29;20062;-74
2023/01/13 01:49:31;;;;;;;3.25;1.60;;;9.70;99.90;;;;;;4936117;29;20048;-76
2023/01/13 01:52:05;;;;;;;4.43;1.45;;;9.80;99.90;;;;;;4951458;29;20062;-76
2023/01/13 01:54:47;;;;;;;4.03;1.88;;;9.70;99.90;;;;;;4950216;29;20139;-76
2023/01/13 01:57:19;;;;;;;3.00;1.60;;;9.70;99.90;;;;;;4926300;29;20044;-76
2023/01/13 01:59:46;;;;;;;2.58;1.20;;;9.70;99.90;;;;;;4935892;29;20563;-76
2023/01/13 02:02:13;;;;;;;2.38;0.80;;;9.70;99.90;;;;;;4904724;29;20079;-75
2023/01/13 02:04:49;;;;;;;1.35;0.80;;;9.70;99.90;;;;;;4920970;29;20055;-76
2023/01/13 02:07:18;;;;;;;1.30;0.80;;;9.70;99.90;;;;;;4951390;29;20056;-75
2023/01/13 02:09:45;;;;;;;1.73;0.85;;;9.70;99.90;;;;;;4951608;28;20039;-75
2023/01/13 02:12:30;;;;;;;1.77;0.80;;;9.80;99.90;;;;;;4951266;29;20079;-75
2023/01/13 02:15:36;;;;;;;3.80;1.00;;;9.80;99.90;;;;;;4942018;28;20079;-75
2023/01/13 02:18:18;;;;;;;3.72;1.10;;;9.80;99.90;;;;;;4948972;29;20075;-75
2023/01/13 02:21:05;;;;;;;2.03;1.10;;;9.80;99.90;;;;;;4917395;29;20039;-75
2023/01/13 02:27:18;;;;;;;2.45;1.17;;;9.90;99.90;;;;;;4918466;29;20043;-75
2023/01/13 02:33:06;;;;;;;2.22;0.70;;;10.00;99.90;;;;;;4948964;29;20461;-75
2023/01/13 02:35:40;;;;;;;0.30;0.30;;;10.00;99.90;;;;;;4935082;29;20051;-75
2023/01/13 02:38:06;;;;;;;0.52;0.30;;;9.90;99.90;;;;;;4955672;28;20048;-76
2023/01/13 02:44:08;;;;;;;0.22;0.20;;;9.90;99.90;;;;;;4922540;29;20055;-76
2023/01/13 02:46:41;;;;;;;0.38;0.30;;;9.80;99.90;;;;;;4950859;29;20044;-76
2023/01/13 02:49:11;;;;;;;0.65;0.30;;;9.90;99.90;;;;;;4950962;29;20051;-75
2023/01/13 02:51:38;;;;;;;0.55;0.30;;;9.90;99.90;;;;;;4951502;29;20082;-76
2023/01/13 02:54:24;;;;;;;0.85;0.30;;;9.80;99.90;;;;;;4951879;28;20162;-76
2023/01/13 02:56:50;;;;;;;0.85;0.25;;;9.80;99.90;;;;;;4928732;29;20056;-75
2023/01/13 02:59:16;;;;;;;1.00;0.30;;;9.80;99.90;;;;;;4952106;28;20103;-75
2023/01/13 03:01:42;;;;;;;0.70;0.32;;;9.90;99.90;;;;;;4934956;29;20229;-75
2023/01/13 03:04:36;;;;;;;0.40;0.30;;;9.80;99.90;;;;;;4935782;29;20054;-76
2023/01/13 03:07:19;;;;;;;0.90;0.30;;;9.80;99.90;;;;;;4931495;29;20531;-75
2023/01/13 03:09:53;;;;;;;1.88;0.40;;;9.80;99.90;;;;;;4951978;29;20048;-75
2023/01/13 03:12:40;;;;;;;1.17;0.30;;;9.80;99.90;;;;;;4930750;29;20046;-76
2023/01/13 03:15:47;;;;;;;1.75;0.32;;;9.80;99.90;;;;;;4937106;29;20052;-76
2023/01/13 03:18:31;;;;;;;1.80;0.60;;;9.80;99.90;;;;;;4949566;29;20464;-76
2023/01/13 03:21:25;;;;;;;1.73;0.40;;;9.80;99.90;;;;;;4932095;29;20050;-75
2023/01/13 03:24:14;;;;;;;1.05;0.38;;;9.70;99.90;;;;;;4913990;29;20040;-76
2023/01/13 03:26:47;;;;;;;0.38;0.38;;;9.70;99.90;;;;;;4933975;29;20075;-75
2023/01/13 03:29:26;;;;;;;0.77;0.40;;;9.70;99.90;;;;;;4936269;29;20149;-75
2023/01/13 03:32:26;;;;;;;1.67;0.75;;;9.70;99.90;;;;;;4952123;29;20160;-75
2023/01/13 03:35:13;;;;;;;0.57;0.22;;;9.70;99.90;;;;;;4948729;29;20062;-75
2023/01/13 03:37:41;;;;;;;0.90;0.30;;;9.70;99.90;;;;;;4935695;29;20130;-76
2023/01/13 03:40:35;;;;;;;0.20;0.20;;;9.70;99.90;;;;;;4888641;29;20315;-75
2023/01/13 03:47:09;;;;;;;0.73;0.40;;;9.60;99.90;;;;;;4910718;29;20055;-75
2023/01/13 03:50:09;;;;;;;0.93;0.25;;;9.60;99.90;;;;;;4934708;29;20502;-75
2023/01/13 03:52:38;;;;;;;1.02;0.50;;;9.60;99.90;;;;;;4942094;29;20052;-75
2023/01/13 03:55:11;;;;;;;1.40;0.50;;;9.60;99.90;;;;;;4943526;29;20051;-75
2023/01/13 03:57:56;;;;;;;1.20;0.30;;;9.60;99.90;;;;;;4954719;28;20107;-76
2023/01/13 04:00:26;;;;;;;0.28;0.25;;;9.50;99.90;;;;;;4938347;29;20662;-75
2023/01/13 04:02:55;;;;;;;1.88;0.43;;;9.50;99.90;;;;;;4903427;29;20052;-75
2023/01/13 04:05:22;;;;;;;1.33;0.40;;;9.60;99.90;;;;;;4919043;29;20051;-75
2023/01/13 04:07:55;;;;;;;2.53;0.55;;;9.60;99.90;;;;;;4918982;29;20146;-75
2023/01/13 04:10:27;;;;;;;0.47;0.40;;;9.60;99.90;;;;;;4958783;28;20047;-75
2023/01/13 04:13:07;;;;;;;0.93;0.50;;;9.60;99.90;;;;;;4933759;29;20052;-75
2023/01/13 04:15:38;;;;;;;0.82;0.50;;;9.60;99.90;;;;;;4953484;28;20044;-75
2023/01/13 04:18:20;;;;;;;3.33;0.63;;;9.50;99.90;;;;;;4953796;28;20067;-75
2023/01/13 04:20:47;;;;;;;2.53;0.60;;;9.50;99.90;;;;;;4953825;28;20130;-75
2023/01/13 04:23:13;;;;;;;2.63;0.63;;;9.60;99.90;;;;;;4938428;29;20147;-75
2023/01/13 04:25:40;;;;;;;2.03;0.70;;;9.60;99.90;;;;;;4954576;28;20047;-76
2023/01/13 04:28:05;;;;;;;2.42;0.85;;;9.60;99.90;;;;;;4953081;28;20063;-75
2023/01/13 04:30:31;;;;;;;2.70;0.65;;;9.60;99.90;;;;;;4952710;28;20374;-75
2023/01/13 04:32:57;;;;;;;1.92;0.68;;;9.60;99.90;;;;;;4952884;28;20075;-75
2023/01/13 04:35:24;;;;;;;2.60;0.70;;;9.60;99.90;;;;;;4938781;29;20130;-75
2023/01/13 04:37:50;;;;;;;5.20;0.90;;;9.70;99.90;;;;;;4938568;29;20393;-75
2023/01/13 04:40:17;;;;;;;2.97;0.73;;;9.60;99.90;;;;;;4953596;29;20086;-75
2023/01/13 04:42:44;;;;;;;2.63;0.93;;;9.70;99.90;;;;;;4938024;29;20048;-75
2023/01/13 04:45:11;;;;;;;4.35;0.90;;;9.60;99.90;;;;;;4953336;28;20047;-75
2023/01/13 04:47:37;;;;;;;4.47;0.90;;;9.70;99.90;;;;;;4953719;28;20044;-76
2023/01/13 04:50:03;;;;;;;7.28;1.50;;;9.60;99.90;;;;;;4937998;29;20114;-76
2023/01/13 04:52:29;;;;;;;6.38;1.13;;;9.60;99.90;;;;;;4953805;28;20079;-75
2023/01/13 04:54:55;;;;;;;4.78;1.02;;;9.60;99.90;;;;;;4937701;29;20078;-76
2023/01/13 04:57:21;;;;;;;5.55;0.98;;;9.60;99.90;;;;;;4953589;28;20044;-75
2023/01/13 04:59:46;;;;;;;5.03;0.88;;;9.60;99.90;;;;;;4936278;29;20036;-75
2023/01/13 05:02:18;;;;;;;7.53;1.30;;;9.50;99.90;;;;;;4935282;29;20040;-75
2023/01/13 05:04:47;;;;;;;4.22;1.10;;;9.50;99.90;;;;;;4919320;29;20051;-75
2023/01/13 05:07:12;;;;;;;;;;;9.40;99.90;;;;;;4957854;28;20558;-75
2023/01/13 05:09:38;;;;;;;9.05;1.48;;;9.40;99.90;;;;;;4937642;29;19910;-75
2023/01/13 05:17:34;;;;;;;5.63;0.93;;;9.50;99.90;;;;;;4953702;29;20063;-75
2023/01/13 05:20:01;;;;;;;3.42;1.40;;;9.50;99.90;;;;;;4953594;29;20078;-75
2023/01/13 05:25:20;;;;;;;4.25;1.00;;;9.40;99.90;;;;;;4950703;29;20048;-75
2023/01/13 05:27:56;;;;;;;3.40;1.20;;;9.40;99.90;;;;;;4952487;29;20054;-75
2023/01/13 05:30:25;;;;;;;5.38;1.40;;;9.40;99.90;;;;;;4945871;29;20341;-75
2023/01/13 05:32:51;;;;;;;9.35;1.75;;;9.40;99.90;;;;;;4934955;29;20372;-75
2023/01/13 05:35:18;;;;;;;8.23;1.75;;;9.40;99.90;;;;;;4952394;29;20047;-75
2023/01/13 05:37:45;;;;;;;7.68;1.38;;;9.40;99.90;;;;;;4952247;29;20043;-75
2023/01/13 05:43:23;;;;;;;10.35;1.52;;;9.30;99.90;;;;;;4947790;28;20662;-75
2023/01/13 05:45:49;;;;;;;5.75;1.35;;;9.30;99.90;;;;;;4936230;29;20047;-75
2023/01/13 05:48:17;;;;;;;7.50;1.30;;;9.40;99.90;;;;;;4936697;29;20056;-75
2023/01/13 05:50:45;;;;;;;8.67;1.60;;;9.30;99.90;;;;;;4951431;28;20055;-75
2023/01/13 05:53:12;;;;;;;9.77;1.90;;;9.30;99.90;;;;;;4951533;29;20720;-75
2023/01/13 05:55:39;;;;;;;14.00;1.80;;;9.30;99.90;;;;;;4888526;29;20820;-75
2023/01/13 05:58:06;;;;;;;10.23;2.03;;;9.20;99.90;;;;;;4908402;29;20050;-75
2023/01/13 06:00:32;;;;;;;7.70;1.65;;;9.20;99.90;;;;;;4935153;29;20047;-75
2023/01/13 06:02:57;;;;;;;5.78;1.58;;;9.10;99.90;;;;;;4931995;29;20039;-75
2023/01/13 06:05:25;;;;;;;11.02;1.85;;;9.10;99.90;;;;;;4951247;28;20490;-75
2023/01/13 06:07:50;;;;;;;9.38;1.80;;;9.00;99.90;;;;;;4960650;28;20346;-76
2023/01/13 06:10:18;;;;;;;7.30;1.92;;;8.90;99.90;;;;;;4937171;29;20134;-75
2023/01/13 06:12:45;;;;;;;6.13;1.60;;;8.90;99.90;;;;;;4921231;29;20044;-76
2023/01/13 06:15:10;;;;;;;8.15;1.60;;;8.90;99.90;;;;;;4933684;29;20179;-75
2023/01/13 06:17:37;;;;;;;6.70;1.73;;;8.90;99.90;;;;;;4950417;28;20552;-75
2023/01/13 06:20:07;;;;;;;10.00;1.83;;;8.80;99.90;;;;;;4935190;29;20191;-75
2023/01/13 06:22:34;;;;;;;8.00;1.70;;;8.80;99.90;;;;;;4951651;28;20063;-75
2023/01/13 06:25:01;;;;;;;8.48;1.33;;;8.70;99.90;;;;;;4930823;29;20791;-76
2023/01/13 06:27:27;;;;;;;8.68;1.45;;;8.70;99.90;;;;;;4952553;28;20074;-76
2023/01/13 06:29:55;;;;;;;5.70;1.30;;;8.60;99.90;;;;;;4930122;29;20068;-75
2023/01/13 06:32:27;;;;;;;7.55;1.60;;;8.60;99.90;;;;;;4917788;29;20062;-75
2023/01/13 06:34:56;;;;;;;6.82;1.52;;;8.60;99.90;;;;;;4920258;29;20490;-76
2023/01/13 06:37:24;;;;;;;9.85;1.50;;;8.50;99.90;;;;;;4947465;29;20130;-75
2023/01/13 06:39:50;;;;;;;7.03;1.30;;;8.50;99.90;;;;;;4952332;28;20047;-75
2023/01/13 06:45:03;;;;;;;7.95;1.75;;;8.40;99.90;;;;;;4939375;29;20063;-76
2023/01/13 06:47:29;;;;;;;6.97;2.10;;;8.40;99.90;;;;;;4916043;29;20095;-76
2023/01/13 06:49:54;;;;;;;10.18;1.45;;;8.40;99.90;;;;;;4949181;29;20082;-76
2023/01/13 06:52:22;;;;;;;11.82;1.70;;;8.30;99.90;;;;;;4934164;29;20058;-75
2023/01/13 06:54:48;;;;;;;6.87;1.40;;;8.40;99.90;;;;;;4919873;29;20082;-75
2023/01/13 06:57:13;;;;;;;6.90;1.38;;;8.30;99.90;;;;;;4932344;29;20744;-75
2023/01/13 06:59:41;;;;;;;9.45;1.52;;;8.30;99.90;;;;;;4964684;28;20043;-75
2023/01/13 07:02:06;;;;;;;10.85;1.65;;;8.30;99.90;;;;;;4929561;29;20055;-75
2023/01/13 07:04:32;;;;;;;6.57;1.40;;;8.30;99.90;;;;;;4934352;29;20048;-75
2023/01/13 07:06:59;;;;;;;6.50;1.35;;;8.30;99.90;;;;;;4950052;29;20039;-75
2023/01/13 07:09:26;;;;;;;11.25;1.83;;;8.20;99.90;;;;;;4953692;28;20468;-74
2023/01/13 07:11:52;;;;;;;6.65;1.35;;;8.20;99.90;;;;;;4954667;28;20059;-75
2023/01/13 07:17:03;;;;;;;5.80;1.10;;;8.20;99.90;;;;;;4941801;29;20191;-75
2023/01/13 07:19:29;;;;;;;4.72;1.30;;;8.20;99.90;;;;;;4951440;29;20075;-74
2023/01/13 07:21:56;;;;;;;8.88;1.50;;;8.10;99.90;;;;;;4939314;29;20051;-75
2023/01/13 07:24:22;;;;;;;10.70;1.45;;;8.20;99.90;;;;;;4940052;29;20048;-75
2023/01/13 07:26:49;;;;;;;7.05;1.48;;;8.10;99.90;;;;;;4940091;29;20483;-75
2023/01/13 07:29:16;;;;;;;11.20;1.30;;;8.10;99.90;;;;;;4956233;29;20059;-75
2023/01/13 07:31:43;;;;;;;6.80;1.38;;;8.20;99.90;;;;;;4939261;29;20461;-75
2023/01/13 07:34:10;;;;;;;7.40;1.67;;;8.20;99.90;;;;;;4931397;29;20044;-75
2023/01/13 07:36:38;;;;;;;7.10;1.52;;;8.10;99.90;;;;;;4921550;29;20483;-75
2023/01/13 07:39:05;;;;;;;7.15;1.58;;;8.10;99.90;;;;;;4953322;28;20043;-75
2023/01/13 07:44:17;;;;;;;7.60;1.58;;;8.10;99.90;;;;;;4939392;29;20047;-74
2023/01/13 07:46:44;;;;;;;9.77;2.00;;;8.20;99.90;;;;;;4935085;29;20163;-74
2023/01/13 07:49:10;;;;;;;6.60;1.77;;;8.10;99.90;;;;;;4937749;29;20055;-75
2023/01/13 07:51:39;;;;;;;6.10;1.80;;;8.10;99.90;;;;;;4941321;29;20380;-75
2023/01/13 07:54:05;;;;;;;11.52;2.42;;;8.10;99.90;;;;;;4938483;29;20718;-75
2023/01/13 07:56:30;;;;;;;13.50;2.63;;;8.10;99.90;;;;;;4935007;29;20060;-75
2023/01/13 07:58:58;;;;;;;10.00;1.80;;;8.10;99.90;;;;;;4937454;29;20039;-74
2023/01/13 08:01:30;;;;;;;8.98;2.13;;;8.20;99.90;;;;;;4922848;29;20075;-75
2023/01/13 08:03:57;;;;;;;9.23;2.17;;;8.20;99.90;;;;;;4935564;29;20055;-75
2023/01/13 08:06:25;;;;;;;12.50;2.00;;;8.10;99.90;;;;;;4935246;29;20103;-75
2023/01/13 08:08:51;;;;;;;14.37;2.83;;;8.10;99.90;;;;;;4935733;29;20434;-75
2023/01/13 08:11:17;;;;;;;13.77;1.75;;;8.10;99.90;;;;;;4936996;29;20295;-75
2023/01/13 08:13:43;;;;;;;12.93;2.55;;;8.10;99.90;;;;;;4923275;29;20044;-75
2023/01/13 08:16:10;;;;;;;12.25;1.90;;;8.20;99.90;;;;;;4954450;28;20058;-75
2023/01/13 08:18:36;;;;;;;12.70;1.73;;;8.20;99.90;;;;;;4952830;29;20078;-75
2023/01/13 08:21:07;;;;;;;11.18;1.80;;;8.30;99.90;;;;;;4934223;29;20079;-75
2023/01/13 08:23:33;;;;;;;8.43;2.00;;;8.30;99.90;;;;;;4933253;29;20123;-75
2023/01/13 08:26:03;;;;;;;9.88;1.83;;;8.30;99.90;;;;;;4936969;29;20539;-75
2023/01/13 08:28:30;;;;;;;11.13;2.42;;;8.40;99.90;;;;;;4952757;28;20063;-75
2023/01/13 08:31:00;;;;;;;11.20;1.58;;;8.40;99.90;;;;;;4936111;29;20111;-75
2023/01/13 08:33:26;;;;;;;12.13;1.90;;;8.40;99.90;;;;;;4921777;29;20040;-76
2023/01/13 08:35:52;;;;;;;6.55;1.42;;;8.50;99.90;;;;;;4918523;29;20046;-73
2023/01/13 08:38:18;;;;;;;6.35;1.73;;;8.50;99.90;;;;;;4930254;29;20054;-76
2023/01/13 08:40:44;;;;;;;17.63;2.20;;;8.50;99.90;;;;;;4933832;29;20052;-75
2023/01/13 08:43:10;;;;;;;7.80;1.35;;;8.50;99.90;;;;;;4933725;29;20126;-75
2023/01/13 08:45:38;;;;;;;6.85;1.35;;;8.50;99.90;;;;;;4917586;29;20043;-75
2023/01/13 08:48:07;;;;;;;6.70;1.85;;;8.50;99.90;;;;;;4946788;28;20475;-76
2023/01/13 08:50:32;;;;;;;7.18;1.50;;;8.60;99.90;;;;;;4943906;29;20053;-75
2023/01/13 08:52:59;;;;;;;10.43;2.00;;;8.60;99.90;;;;;;4949042;29;20476;-74
2023/01/13 08:55:24;;;;;;;13.57;2.20;;;8.60;99.90;;;;;;4948989;28;20070;-74
2023/01/13 08:57:50;;;;;;;13.93;2.30;;;8.60;99.90;;;;;;4931486;29;20489;-74
2023/01/13 09:00:16;;;;;;;9.45;1.48;;;8.70;99.90;;;;;;4948481;28;20047;-74
2023/01/13 09:02:42;;;;;;;8.07;1.80;;;8.70;99.90;;;;;;4932255;29;20054;-74
2023/01/13 09:05:08;;;;;;;9.85;1.50;;;8.80;99.90;;;;;;4931039;29;20044;-74
2023/01/13 09:07:35;;;;;;;5.50;1.35;;;8.80;99.90;;;;;;4900676;29;20053;-74
2023/01/13 09:10:01;;;;;;;8.65;1.17;;;8.80;99.90;;;;;;4926907;29;20541;-73
2023/01/13 09:15:11;;;;;;;7.55;2.33;;;9.00;99.90;;;;;;4947513;29;20516;-74
2023/01/13 09:17:37;;;;;;;7.78;1.60;;;9.00;99.90;;;;;;4949065;28;20322;-73
2023/01/13 09:20:04;;;;;;;7.20;1.58;;;9.10;99.90;;;;;;4951610;28;20055;-72
2023/01/13 09:22:29;;;;;;;9.60;2.22;;;9.20;99.90;;;;;;4933820;29;20043;-73
2023/01/13 09:24:55;;;;;;;8.35;1.50;;;9.20;99.90;;;;;;4948302;29;20052;-72
2023/01/13 09:27:21;;;;;;;9.90;2.90;;;9.20;99.90;;;;;;4931763;29;20085;-73
2023/01/13 09:29:47;;;;;;;10.52;1.77;;;9.10;99.90;;;;;;4915781;29;20083;-73
2023/01/13 09:32:13;;;;;;;10.25;1.98;;;9.10;99.90;;;;;;4946540;29;20055;-73
2023/01/13 09:37:24;;;;;;;11.00;2.03;;;9.10;99.90;;;;;;4945345;29;20130;-73
2023/01/13 09:39:49;;;;;;;11.75;2.88;;;9.20;99.90;;;;;;4931761;29;20134;-74
2023/01/13 09:45:40;;;;;;;8.23;1.58;;;9.10;99.90;;;;;;4944847;29;20058;-74
2023/01/13 09:48:17;;;;;;;9.07;2.25;;;9.10;99.90;;;;;;4950596;28;20056;-74
2023/01/13 09:50:49;;;;;;;9.60;2.10;;;9.00;99.90;;;;;;4951484;29;20484;-75
2023/01/13 09:53:27;;;;;;;9.10;1.95;;;9.10;99.90;;;;;;4935337;29;20650;-75
2023/01/13 09:55:54;;;;;;;;;;;9.00;99.90;;;;;;4904175;29;20054;-74
2023/01/13 09:58:24;;;;;;;9.00;1.70;;;9.00;99.90;;;;;;4934145;29;19921;-74
2023/01/13 10:01:27;;;;;;;9.73;2.05;;;9.10;99.90;;;;;;4950404;29;20377;-75
2023/01/13 10:03:53;;;;;;;11.38;2.47;;;9.10;99.90;;;;;;4948368;29;20059;-74
2023/01/13 10:06:22;;;;;;;9.80;2.47;;;9.10;99.90;;;;;;4951504;28;20063;-74
2023/01/13 10:08:48;;;;;;;9.32;2.75;;;9.20;99.90;;;;;;4935038;29;20047;-74
2023/01/13 10:14:40;;;;;;;5.40;1.77;;;9.20;99.90;;;;;;4926519;29;20135;-74
2023/01/13 10:17:42;;;;;;;7.88;1.73;;;9.20;99.90;;;;;;4924180;29;20118;-73
2023/01/13 10:20:20;;;;;;;11.07;2.42;;;9.20;99.90;;;;;;4918725;29;20149;-74
2023/01/13 10:23:17;;;;;;;8.70;1.88;;;9.30;99.90;;;;;;4941563;29;20047;-73
2023/01/13 10:26:15;;;;;;;14.32;2.05;;;9.20;99.90;;;;;;4932874;29;20484;-73
2023/01/13 10:28:53;;;;;;;8.70;2.50;;;9.40;99.90;;;;;;4943197;29;20079;-74
2023/01/13 10:31:20;;;;;;;7.85;1.85;;;9.40;99.90;;;;;;4935492;29;20111;-74
2023/01/13 10:33:45;;;;;;;5.90;1.48;;;9.30;99.90;;;;;;4918650;29;20044;-74
2023/01/13 10:36:12;;;;;;;9.13;1.85;;;9.30;99.90;;;;;;4934307;29;20055;-74
2023/01/13 10:38:46;;;;;;;10.52;2.28;;;9.40;99.90;;;;;;4912975;29;20044;-74
2023/01/13 10:41:15;;;;;;;8.13;1.88;;;9.40;99.90;;;;;;4933530;29;20040;-74
2023/01/13 10:44:03;;;;;;;10.63;2.58;;;9.40;99.90;;;;;;4935259;29;20039;-74
2023/01/13 10:46:34;;;;;;;13.10;2.20;;;9.40;99.90;;;;;;4924174;29;20055;-74
2023/01/13 10:49:25;;;;;;;12.32;1.95;;;9.30;99.90;;;;;;4949795;28;20150;-74
2023/01/13 10:51:52;;;;;;;10.02;1.75;;;9.40;99.90;;;;;;4948820;29;20045;-74
2023/01/13 10:54:22;;;;;;;11.32;2.13;;;9.30;99.90;;;;;;4921206;29;20039;-74
2023/01/13 10:57:11;;;;;;;8.18;1.90;;;9.30;99.90;;;;;;4953027;28;20342;-74
2023/01/13 10:59:38;;;;;;;9.63;1.83;;;9.30;99.90;;;;;;4938912;29;20123;-75
2023/01/13 11:02:07;;;;;;;13.20;2.53;;;9.40;99.90;;;;;;4932861;29;20051;-75
2023/01/13 11:04:39;;;;;;;15.75;2.08;;;9.40;99.90;;;;;;4937600;29;20059;-77
2023/01/13 11:07:36;;;;;;;10.80;1.98;;;9.30;99.90;;;;;;4954048;28;20048;-76
2023/01/13 11:10:08;;;;;;;12.90;2.67;;;9.40;99.90;;;;;;4951699;29;20047;-73
2023/01/13 11:12:44;;;;;;;9.70;1.67;;;9.30;99.90;;;;;;4937773;29;20051;-75
2023/01/13 11:15:13;;;;;;;8.52;2.05;;;9.30;99.90;;;;;;4919230;29;20047;-76
2023/01/13 11:18:05;;;;;;;12.23;2.17;;;9.30;99.90;;;;;;4952599;29;20056;-75
2023/01/13 11:20:36;;;;;;;8.20;2.15;;;9.30;99.90;;;;;;4949818;28;20051;-76
2023/01/13 11:23:26;;;;;;;7.40;1.75;;;9.30;99.90;;;;;;4952607;29;20503;-76
2023/01/13 11:26:20;;;;;;;10.85;1.92;;;9.30;99.90;;;;;;4931521;29;20052;-76
2023/01/13 11:29:10;;;;;;;7.60;2.22;;;9.30;99.70;;;;;;4951848;28;20060;-74
2023/01/13 11:31:43;;;;;;;12.80;2.83;;;9.30;99.00;;;;;;4958157;28;20491;-73
2023/01/13 11:34:30;;;;;;;18.92;2.45;;;9.30;99.20;;;;;;4936028;29;20051;-75
2023/01/13 11:36:57;;;;;;;7.03;1.83;;;9.30;99.20;;;;;;4952484;29;20070;-75
2023/01/13 11:39:45;;;;;;;9.85;2.30;;;9.30;99.00;;;;;;4952436;28;20039;-74
2023/01/13 11:42:19;;;;;;;12.90;3.30;;;9.30;99.70;;;;;;4940693;29;20047;-75
2023/01/13 11:45:00;;;;;;;7.65;1.67;;;9.30;99.90;;;;;;4936657;29;20043;-74
2023/01/13 11:47:26;;;;;;;12.75;2.45;;;9.30;99.90;;;;;;4936590;29;20042;-74
2023/01/13 11:49:51;;;;;;;10.63;1.73;;;9.30;99.90;;;;;;4951819;28;20039;-74
2023/01/13 11:52:40;;;;;;;8.65;1.92;;;9.30;99.90;;;;;;4953035;28;20115;-74
2023/01/13 11:55:19;;;;;;;11.60;1.85;;;9.30;99.90;;;;;;4948396;29;20063;-74
2023/01/13 11:58:03;;;;;;;11.55;2.58;;;9.30;99.90;;;;;;4952321;28;20043;-72
2023/01/13 12:00:35;;;;;;;12.15;1.80;;;9.30;99.90;;;;;;4936504;29;20373;-74
2023/01/13 12:03:26;;;;;;;10.63;2.55;;;9.60;99.90;;;;;;4951547;28;20043;-73
2023/01/13 12:06:12;;;;;;;9.95;2.20;;;9.60;99.90;;;;;;4932367;29;20070;-76
2023/01/13 12:08:48;;;;;;;8.90;2.00;;;9.80;99.80;;;;;;4936343;29;20057;-74
2023/01/13 12:11:18;;;;;;;9.00;2.08;;;9.60;99.20;;;;;;4936247;29;20059;-74
2023/01/13 12:13:47;;;;;;;13.05;1.90;;;9.50;99.60;;;;;;4936765;29;20511;-74
2023/01/13 12:16:26;;;;;;;15.77;2.53;;;9.50;99.20;;;;;;4936787;29;20071;-75
2023/01/13 12:18:59;;;;;;;11.57;1.80;;;9.50;99.80;;;;;;4951082;29;20493;-74
2023/01/13 12:21:29;;;;;;;9.32;2.38;;;9.50;99.90;;;;;;4952252;29;20473;-74
2023/01/13 12:24:16;;;;;;;9.25;2.55;;;9.80;99.90;;;;;;4952148;28;20043;-74
2023/01/13 12:26:57;;;;;;;13.38;1.90;;;9.70;99.60;;;;;;4951662;29;20051;-75
2023/01/13 12:29:34;;;;;;;10.70;1.98;;;9.50;99.90;;;;;;4945006;28;20083;-74
2023/01/13 12:32:23;;;;;;;14.02;2.13;;;9.50;99.90;;;;;;4952091;29;20090;-74
2023/01/13 12:35:27;;;;;;;15.32;3.15;;;9.90;99.70;;;;;;4935418;29;20087;-73
2023/01/13 12:38:13;;;;;;;12.13;2.70;;;9.70;99.90;;;;;;4947600;29;20047;-75
2023/01/13 12:41:08;;;;;;;11.10;2.20;;;9.70;99.90;;;;;;4946371;29;20039;-75
2023/01/13 12:46:20;;;;;;;19.38;2.28;;;9.50;99.90;;;;;;4950434;29;20048;-75
2023/01/13 12:48:58;;;;;;;11.00;2.38;;;9.50;99.90;;;;;;4946835;29;20059;-75
2023/01/13 12:51:31;;;;;;;10.25;2.28;;;9.50;99.90;;;;;;4929390;29;20052;-75
2023/01/13 12:53:57;;;;;;;7.97;2.33;;;9.50;99.90;;;;;;4949666;29;20376;-75
2023/01/13 12:56:35;;;;;;;8.18;2.00;;;9.50;99.90;;;;;;4926092;29;20060;-75
2023/01/13 12:59:16;;;;;;;11.80;2.00;;;9.60;99.90;;;;;;4932654;29;20385;-74
2023/01/13 13:01:42;;;;;;;11.80;2.05;;;9.50;99.90;;;;;;4931200;29;20045;-74
2023/01/13 13:04:17;;;;;;;11.13;2.17;;;9.50;99.90;;;;;;4914048;29;20412;-75
2023/01/13 13:07:16;;;;;;;12.48;2.10;;;9.60;99.90;;;;;;4955164;28;20933;-75
2023/01/13 13:09:43;;;;;;;11.27;2.60;;;9.80;99.90;;;;;;4916757;29;20046;-74
2023/01/13 13:15:26;;;;;;;12.45;2.40;;;10.00;99.60;;;;;;4934177;29;20079;-74
2023/01/13 13:17:58;;;;;;;12.80;2.50;;;10.10;99.20;;;;;;4948271;29;20409;-74
2023/01/13 13:20:55;;;;;;;11.27;2.60;;;10.30;97.70;;;;;;4954160;28;20053;-74
2023/01/13 13:23:36;;;;;;;8.50;2.35;;;10.00;98.80;;;;;;4933036;29;20044;-75
2023/01/13 13:26:23;;;;;;;10.20;1.77;;;9.90;99.20;;;;;;4932807;29;20047;-75
2023/01/13 13:29:14;;;;;;;10.95;2.08;;;9.90;99.10;;;;;;4909697;29;20113;-74
2023/01/13 13:32:06;;;;;;;11.95;1.90;;;9.70;99.80;;;;;;4928652;29;20349;-74
2023/01/13 13:34:37;;;;;;;14.57;2.55;;;9.60;99.90;;;;;;4925799;29;20101;-74
2023/01/13 13:37:16;;;;;;;12.45;2.72;;;9.70;99.90;;;;;;4931573;29;20114;-75
2023/01/13 13:47:46;;;;;;;11.23;2.20;;;10.00;99.90;;;;;;4944577;28;20065;-74
2023/01/13 13:50:18;;;;;;;1503.78;753.50;;;9.80;99.90;;;;;;4912046;29;20048;-75
2023/01/13 13:52:53;;;;;;;12.45;2.10;;;10.60;99.90;;;;;;4931678;29;20044;-74
2023/01/13 13:55:21;;;;;;;14.43;2.45;;;10.00;99.90;;;;;;4930638;29;20048;-75
2023/01/13 13:57:53;;;;;;;29.15;25.90;;;9.80;99.90;;;;;;4946059;29;20051;-74
2023/01/13 14:00:29;;;;;;;10.80;2.90;;;9.90;99.90;;;;;;4930360;29;20055;-73
2023/01/13 14:02:57;;;;;;;12.35;2.55;;;9.80;99.90;;;;;;4928624;29;20051;-73
2023/01/13 14:05:24;;;;;;;18.60;2.92;;;9.70;99.90;;;;;;4944534;28;20043;-73
2023/01/13 14:07:57;;;;;;;16.20;2.47;;;9.60;99.90;;;;;;4931060;29;20166;-73
2023/01/13 14:10:27;;;;;;;16.13;2.38;;;9.40;99.90;;;;;;4921465;29;20055;-73
2023/01/13 14:12:52;;;;;;;10.45;2.00;;;9.30;99.90;;;;;;4952579;28;20062;-74
2023/01/13 14:15:33;;;;;;;13.35;2.50;;;9.20;99.90;;;;;;4914923;29;20476;-73
2023/01/13 14:18:19;;;;;;;15.23;3.08;;;9.20;99.90;;;;;;4920346;29;20048;-73
2023/01/13 14:20:58;;;;;;;17.83;3.05;;;9.10;99.90;;;;;;4925658;29;20053;-74